Time;durP1;ratioP1;P1;durP2;ratioP2;P2;SDS_P1;SDS_P2;PMS_P1;PMS_P2;Temp;Humidity;BMP_temperature;BMP_pressure;BME280_temperature;BME280_humidity;BME280_pressure;Samples;Min_cycle;Max_cycle;Signal;HPM_P1;HPM_P2
2021/07/28 00:01:00;;;;;;;13.15;8.40;;;;;;;;;;4938651;29;20087;-77
2021/07/28 00:03:27;;;;;;;11.55;8.25;;;;;;;;;;4938661;29;20052;-77
2021/07/28 00:05:53;;;;;;;11.75;8.15;;;;;;;;;;4937894;29;20052;-77
2021/07/28 00:08:21;;;;;;;11.57;8.63;;;;;;;;;;4938669;29;20047;-77
2021/07/28 00:10:49;;;;;;;15.20;8.70;;;;;;;;;;4938535;29;20051;-77
2021/07/28 00:13:16;;;;;;;16.25;9.23;;;;;;;;;;4938761;29;20107;-77
2021/07/28 00:15:42;;;;;;;12.80;9.80;;;;;;;;;;4937715;29;20099;-78
2021/07/28 00:18:15;;;;;;;13.38;9.70;;;;;;;;;;4938526;29;20103;-77
2021/07/28 00:23:23;;;;;;;11.73;8.93;;;;;;;;;;4926877;29;20052;-77
2021/07/28 00:25:51;;;;;;;12.15;8.70;;;;;;;;;;4938076;29;20051;-77
2021/07/28 00:28:18;;;;;;;12.18;9.13;;;;;;;;;;4938583;29;20044;-77
2021/07/28 00:30:45;;;;;;;10.68;7.47;;;;;;;;;;4938542;29;20047;-77
2021/07/28 00:33:12;;;;;;;12.40;7.45;;;;;;;;;;4938731;29;20051;-77
2021/07/28 00:35:38;;;;;;;10.50;6.65;;;;;;;;;;4937811;29;20056;-77
2021/07/28 00:38:06;;;;;;;9.30;6.60;;;;;;;;;;4938596;29;20505;-77
2021/07/28 00:40:33;;;;;;;11.15;6.80;;;;;;;;;;4938409;29;20130;-77
2021/07/28 00:43:12;;;;;;;9.52;6.63;;;;;;;;;;4938543;29;20044;-77
2021/07/28 00:45:40;;;;;;;9.63;6.88;;;;;;;;;;4938187;29;20059;-77
2021/07/28 00:48:08;;;;;;;10.60;7.45;;;;;;;;;;4938484;29;20549;-77
2021/07/28 00:50:36;;;;;;;11.55;7.07;;;;;;;;;;4940714;29;20115;-78
2021/07/28 00:53:03;;;;;;;13.55;8.93;;;;;;;;;;4941215;29;20078;-78
2021/07/28 00:55:31;;;;;;;13.48;8.75;;;;;;;;;;4939259;29;20111;-78
2021/07/28 00:58:00;;;;;;;12.98;8.63;;;;;;;;;;4940602;29;20135;-78
2021/07/28 01:00:28;;;;;;;12.48;8.07;;;;;;;;;;4940865;29;20098;-78
2021/07/28 01:02:55;;;;;;;11.70;8.27;;;;;;;;;;4940927;29;20056;-78
2021/07/28 01:05:22;;;;;;;10.77;6.25;;;;;;;;;;4940705;29;20111;-78
2021/07/28 01:07:49;;;;;;;10.70;6.25;;;;;;;;;;4940586;29;20047;-78
2021/07/28 01:10:16;;;;;;;12.82;6.82;;;;;;;;;;4941122;29;20047;-78
2021/07/28 01:12:45;;;;;;;9.48;6.40;;;;;;;;;;4938229;29;20115;-77
2021/07/28 01:15:21;;;;;;;9.63;5.95;;;;;;;;;;4938725;29;20044;-77
2021/07/28 01:17:51;;;;;;;8.68;5.97;;;;;;;;;;4940203;29;20055;-77
2021/07/28 01:20:21;;;;;;;9.85;6.78;;;;;;;;;;4938071;29;20099;-76
2021/07/28 01:22:49;;;;;;;10.05;6.75;;;;;;;;;;4937308;29;20052;-77
2021/07/28 01:25:17;;;;;;;9.75;5.97;;;;;;;;;;4937269;29;20119;-78
2021/07/28 01:27:44;;;;;;;9.00;6.05;;;;;;;;;;4937550;29;20048;-77
2021/07/28 01:30:16;;;;;;;9.82;6.22;;;;;;;;;;4937467;29;20043;-78
2021/07/28 01:32:43;;;;;;;8.80;5.50;;;;;;;;;;4937016;29;20124;-77
2021/07/28 01:35:15;;;;;;;9.52;6.00;;;;;;;;;;4936251;29;20494;-78
2021/07/28 01:37:43;;;;;;;10.30;6.50;;;;;;;;;;4948991;23;20055;-74
2021/07/28 01:40:11;;;;;;;9.77;6.05;;;;;;;;;;4954909;29;20055;-74
2021/07/28 01:42:41;;;;;;;11.63;6.43;;;;;;;;;;4955605;28;20500;-74
2021/07/28 01:45:09;;;;;;;9.68;6.05;;;;;;;;;;4963053;29;20106;-74
2021/07/28 01:47:36;;;;;;;9.32;6.07;;;;;;;;;;4973421;28;20075;-74
2021/07/28 01:50:07;;;;;;;9.70;6.55;;;;;;;;;;4956093;29;20048;-74
2021/07/28 01:52:34;;;;;;;10.07;6.60;;;;;;;;;;4950368;29;20143;-74
2021/07/28 01:55:01;;;;;;;9.60;5.78;;;;;;;;;;4941827;29;20127;-74
2021/07/28 01:57:28;;;;;;;8.57;5.85;;;;;;;;;;4936525;29;20142;-74
2021/07/28 02:00:00;;;;;;;10.07;6.47;;;;;;;;;;4936383;29;20055;-74
2021/07/28 02:02:31;;;;;;;10.43;6.32;;;;;;;;;;4936255;29;20062;-74
2021/07/28 02:04:58;;;;;;;11.02;6.50;;;;;;;;;;4935335;29;20465;-74
2021/07/28 02:07:25;;;;;;;10.65;6.80;;;;;;;;;;4936159;29;20433;-74
2021/07/28 02:09:52;;;;;;;9.60;6.47;;;;;;;;;;4935885;29;20398;-74
2021/07/28 02:12:19;;;;;;;11.63;6.60;;;;;;;;;;4935871;29;20473;-74
2021/07/28 02:14:45;;;;;;;9.43;6.43;;;;;;;;;;4934884;29;20497;-75
2021/07/28 02:17:14;;;;;;;9.75;6.60;;;;;;;;;;4935654;29;20052;-74
2021/07/28 02:19:40;;;;;;;10.63;6.13;;;;;;;;;;4935517;29;20184;-74
2021/07/28 02:22:07;;;;;;;9.38;5.88;;;;;;;;;;4935987;29;20044;-74
2021/07/28 02:24:34;;;;;;;9.80;6.55;;;;;;;;;;4935644;29;20055;-74
2021/07/28 02:27:01;;;;;;;8.95;6.32;;;;;;;;;;4935675;29;20074;-74
2021/07/28 02:29:28;;;;;;;10.07;6.65;;;;;;;;;;4935483;29;20473;-74
2021/07/28 02:31:55;;;;;;;11.50;6.78;;;;;;;;;;4935636;29;20118;-74
2021/07/28 02:34:23;;;;;;;11.32;6.82;;;;;;;;;;4935319;29;20048;-74
2021/07/28 02:36:50;;;;;;;11.27;7.03;;;;;;;;;;4934996;29;20079;-74
2021/07/28 02:39:17;;;;;;;9.57;6.20;;;;;;;;;;4935219;29;20575;-74
2021/07/28 02:41:43;;;;;;;11.65;6.80;;;;;;;;;;4935541;29;20051;-74
2021/07/28 02:44:10;;;;;;;10.15;6.95;;;;;;;;;;4935396;29;20052;-74
2021/07/28 02:46:37;;;;;;;13.70;7.28;;;;;;;;;;4934636;29;20048;-74
2021/07/28 02:49:04;;;;;;;9.10;5.78;;;;;;;;;;4935455;29;20051;-74
2021/07/28 02:51:32;;;;;;;10.10;6.55;;;;;;;;;;4935178;29;20484;-74
2021/07/28 02:53:58;;;;;;;9.00;6.20;;;;;;;;;;4935453;29;20048;-74
2021/07/28 02:56:25;;;;;;;8.82;6.57;;;;;;;;;;4934728;29;20055;-74
2021/07/28 02:58:52;;;;;;;9.20;6.40;;;;;;;;;;4935019;29;20124;-75
2021/07/28 03:01:19;;;;;;;11.50;7.22;;;;;;;;;;4935524;29;20043;-74
2021/07/28 03:03:45;;;;;;;12.25;7.57;;;;;;;;;;4935447;29;20185;-74
2021/07/28 03:06:12;;;;;;;9.10;6.13;;;;;;;;;;4934236;29;20055;-74
2021/07/28 03:08:40;;;;;;;8.32;5.10;;;;;;;;;;4934903;29;20474;-74
2021/07/28 03:11:07;;;;;;;8.27;5.35;;;;;;;;;;4935038;29;20048;-74
2021/07/28 03:13:34;;;;;;;8.20;4.90;;;;;;;;;;4934991;29;20461;-74
2021/07/28 03:16:07;;;;;;;8.15;4.75;;;;;;;;;;4934153;29;20529;-74
2021/07/28 03:18:34;;;;;;;7.88;5.32;;;;;;;;;;4934886;29;20461;-74
2021/07/28 03:21:01;;;;;;;8.38;5.13;;;;;;;;;;4934723;29;20058;-74
2021/07/28 03:23:28;;;;;;;9.35;5.72;;;;;;;;;;4934817;29;20048;-74
2021/07/28 03:25:56;;;;;;;9.48;5.30;;;;;;;;;;4933941;29;20069;-74
2021/07/28 03:28:23;;;;;;;8.35;5.70;;;;;;;;;;4934930;29;20052;-74
2021/07/28 03:30:50;;;;;;;11.27;6.72;;;;;;;;;;4934791;29;20051;-74
2021/07/28 03:33:17;;;;;;;11.63;7.47;;;;;;;;;;4934791;29;20048;-74
2021/07/28 03:35:44;;;;;;;11.98;6.95;;;;;;;;;;4934140;29;20048;-74
2021/07/28 03:38:11;;;;;;;10.07;6.30;;;;;;;;;;4934624;29;20052;-74
2021/07/28 03:40:38;;;;;;;9.30;6.25;;;;;;;;;;4934643;29;20103;-74
2021/07/28 03:43:07;;;;;;;10.75;6.88;;;;;;;;;;4935136;29;20051;-74
2021/07/28 03:45:34;;;;;;;11.15;7.25;;;;;;;;;;4933943;29;20055;-74
2021/07/28 03:48:01;;;;;;;12.45;7.38;;;;;;;;;;4934776;29;20044;-74
2021/07/28 03:50:28;;;;;;;13.27;8.68;;;;;;;;;;4934514;29;20445;-74
2021/07/28 03:52:57;;;;;;;10.75;7.40;;;;;;;;;;4934480;29;20472;-74
2021/07/28 03:55:24;;;;;;;11.77;7.22;;;;;;;;;;4933856;29;20054;-74
2021/07/28 03:57:50;;;;;;;11.70;7.18;;;;;;;;;;4934774;29;20043;-74
2021/07/28 04:00:20;;;;;;;10.98;7.43;;;;;;;;;;4935022;29;20111;-74
2021/07/28 04:02:47;;;;;;;12.67;7.80;;;;;;;;;;4934891;29;20051;-74
2021/07/28 04:05:14;;;;;;;14.38;8.40;;;;;;;;;;4933720;29;20047;-74
2021/07/28 04:07:41;;;;;;;12.35;8.88;;;;;;;;;;4934124;29;20134;-74
2021/07/28 04:10:09;;;;;;;12.43;8.32;;;;;;;;;;4934520;29;20528;-74
2021/07/28 04:12:36;;;;;;;14.52;8.70;;;;;;;;;;4934595;29;20102;-74
2021/07/28 04:15:03;;;;;;;12.38;8.43;;;;;;;;;;4933749;29;20059;-73
2021/07/28 04:17:32;;;;;;;13.13;9.25;;;;;;;;;;4934517;29;20405;-74
2021/07/28 04:19:59;;;;;;;12.07;8.55;;;;;;;;;;4934570;29;20106;-74
2021/07/28 04:22:26;;;;;;;13.73;9.18;;;;;;;;;;4934303;29;20114;-74
2021/07/28 04:24:53;;;;;;;16.92;10.02;;;;;;;;;;4933978;29;20059;-74
2021/07/28 04:27:20;;;;;;;12.02;9.02;;;;;;;;;;4934388;29;20051;-75
2021/07/28 04:29:47;;;;;;;13.60;7.75;;;;;;;;;;4934247;29;20055;-73
2021/07/28 04:32:14;;;;;;;10.40;7.07;;;;;;;;;;4934318;29;20047;-74
2021/07/28 04:34:42;;;;;;;10.85;7.57;;;;;;;;;;4933602;29;20099;-73
2021/07/28 04:37:09;;;;;;;12.27;6.32;;;;;;;;;;4934658;29;20055;-73
2021/07/28 04:39:36;;;;;;;11.73;6.95;;;;;;;;;;4935973;29;20733;-73
2021/07/28 04:42:02;;;;;;;14.10;7.95;;;;;;;;;;4937374;29;20576;-74
2021/07/28 04:44:29;;;;;;;11.07;6.78;;;;;;;;;;4937388;29;20051;-74
2021/07/28 04:46:57;;;;;;;11.88;6.60;;;;;;;;;;4936740;29;20465;-74
2021/07/28 04:49:24;;;;;;;10.98;6.88;;;;;;;;;;4937090;29;20134;-74
2021/07/28 04:51:52;;;;;;;10.95;5.85;;;;;;;;;;4937457;29;20056;-74
2021/07/28 04:54:19;;;;;;;10.95;5.80;;;;;;;;;;4937213;29;20048;-73
2021/07/28 04:56:46;;;;;;;11.00;5.97;;;;;;;;;;4936755;29;20445;-74
2021/07/28 04:59:13;;;;;;;8.95;5.45;;;;;;;;;;4937165;29;20055;-74
2021/07/28 05:01:39;;;;;;;8.85;5.72;;;;;;;;;;4937232;29;20056;-74
2021/07/28 05:04:09;;;;;;;9.00;5.72;;;;;;;;;;4937367;29;20137;-73
2021/07/28 05:06:36;;;;;;;9.13;5.22;;;;;;;;;;4936485;29;20134;-74
2021/07/28 05:09:04;;;;;;;9.57;5.53;;;;;;;;;;4936848;29;20044;-74
2021/07/28 05:11:30;;;;;;;12.60;5.78;;;;;;;;;;4937056;29;20056;-74
2021/07/28 05:13:57;;;;;;;9.73;5.93;;;;;;;;;;4937438;29;20052;-73
2021/07/28 05:16:24;;;;;;;10.13;5.75;;;;;;;;;;4936745;29;20111;-73
2021/07/28 05:18:51;;;;;;;9.00;6.18;;;;;;;;;;4954328;29;20083;-73
2021/07/28 05:21:17;;;;;;;11.63;7.05;;;;;;;;;;4955493;29;20504;-73
2021/07/28 05:23:44;;;;;;;8.23;5.28;;;;;;;;;;4948220;29;20468;-73
2021/07/28 05:26:13;;;;;;;8.55;5.68;;;;;;;;;;4945563;29;20047;-73
2021/07/28 05:28:40;;;;;;;10.43;5.63;;;;;;;;;;4940479;29;20048;-73
2021/07/28 05:31:07;;;;;;;10.00;6.18;;;;;;;;;;4939599;29;20052;-73
2021/07/28 05:33:33;;;;;;;11.52;6.05;;;;;;;;;;4937350;29;20056;-76
2021/07/28 05:36:00;;;;;;;9.93;5.55;;;;;;;;;;4936480;29;20111;-74
2021/07/28 05:38:27;;;;;;;10.18;6.35;;;;;;;;;;4936605;29;20048;-74
2021/07/28 05:40:55;;;;;;;12.27;6.85;;;;;;;;;;4936648;29;20056;-73
2021/07/28 05:43:24;;;;;;;12.05;7.63;;;;;;;;;;4937318;29;20059;-75
2021/07/28 05:45:51;;;;;;;14.25;8.45;;;;;;;;;;4936114;29;20058;-75
2021/07/28 05:48:18;;;;;;;14.85;9.07;;;;;;;;;;4936785;29;20131;-75
2021/07/28 05:50:45;;;;;;;18.00;9.68;;;;;;;;;;4936453;29;20116;-75
2021/07/28 05:53:11;;;;;;;11.13;7.53;;;;;;;;;;4936276;29;20556;-75
2021/07/28 05:55:38;;;;;;;10.85;6.65;;;;;;;;;;4935580;29;20497;-75
2021/07/28 05:58:05;;;;;;;12.02;7.35;;;;;;;;;;4936542;29;20055;-75
2021/07/28 06:00:33;;;;;;;12.00;7.25;;;;;;;;;;4936174;29;20394;-74
2021/07/28 06:03:00;;;;;;;14.10;8.73;;;;;;;;;;4936246;29;20098;-74
2021/07/28 06:05:27;;;;;;;15.63;9.20;;;;;;;;;;4935410;29;20055;-75
2021/07/28 06:07:53;;;;;;;17.30;11.07;;;;;;;;;;4936240;29;20059;-74
2021/07/28 06:10:20;;;;;;;16.10;10.68;;;;;;;;;;4936024;29;20115;-73
2021/07/28 06:12:47;;;;;;;16.45;10.75;;;;;;;;;;4935925;29;20093;-73
2021/07/28 06:15:14;;;;;;;13.40;8.30;;;;;;;;;;4935452;29;20047;-74
2021/07/28 06:17:42;;;;;;;10.32;6.82;;;;;;;;;;4935692;29;20147;-73
2021/07/28 06:20:10;;;;;;;11.57;7.00;;;;;;;;;;4935748;29;20115;-73
2021/07/28 06:22:37;;;;;;;11.30;7.45;;;;;;;;;;4935825;29;20060;-73
2021/07/28 06:25:04;;;;;;;10.93;7.47;;;;;;;;;;4935003;29;20457;-74
2021/07/28 06:27:31;;;;;;;11.18;6.30;;;;;;;;;;4935528;29;20493;-74
2021/07/28 06:29:58;;;;;;;9.80;6.60;;;;;;;;;;4935620;29;20394;-74
2021/07/28 06:32:24;;;;;;;10.85;6.40;;;;;;;;;;4935463;29;20044;-74
2021/07/28 06:34:52;;;;;;;10.68;6.53;;;;;;;;;;4935073;29;20055;-74
2021/07/28 06:37:19;;;;;;;9.98;6.22;;;;;;;;;;4935552;29;20048;-74
2021/07/28 06:39:46;;;;;;;10.55;6.55;;;;;;;;;;4935456;29;20052;-74
2021/07/28 06:42:14;;;;;;;9.88;5.93;;;;;;;;;;4935386;29;20051;-74
2021/07/28 06:44:41;;;;;;;11.48;7.32;;;;;;;;;;4934591;29;20103;-74
2021/07/28 06:47:08;;;;;;;8.95;5.72;;;;;;;;;;4935729;29;20051;-74
2021/07/28 06:49:35;;;;;;;9.73;5.88;;;;;;;;;;4935594;29;20055;-74
2021/07/28 06:52:04;;;;;;;11.98;6.38;;;;;;;;;;4935179;29;20051;-74
2021/07/28 06:54:30;;;;;;;10.63;6.45;;;;;;;;;;4935196;29;20052;-73
2021/07/28 06:56:57;;;;;;;11.63;6.07;;;;;;;;;;4934919;29;20077;-75
2021/07/28 06:59:24;;;;;;;10.82;6.45;;;;;;;;;;4935325;29;20052;-73
2021/07/28 07:01:51;;;;;;;11.68;6.30;;;;;;;;;;4925567;29;20111;-74
2021/07/28 07:04:18;;;;;;;13.65;7.00;;;;;;;;;;4931872;29;20115;-74
2021/07/28 07:06:44;;;;;;;13.63;6.47;;;;;;;;;;4932478;29;20052;-75
2021/07/28 07:09:12;;;;;;;14.70;7.20;;;;;;;;;;4933557;29;20055;-75
2021/07/28 07:11:39;;;;;;;13.35;7.20;;;;;;;;;;4933029;29;20054;-75
2021/07/28 07:14:06;;;;;;;9.80;7.45;;;;;;;;;;4933193;29;20106;-75
2021/07/28 07:16:33;;;;;;;10.90;6.88;;;;;;;;;;4932560;29;20056;-75
2021/07/28 07:19:00;;;;;;;11.90;7.50;;;;;;;;;;4933099;29;20044;-75
2021/07/28 07:21:26;;;;;;;10.38;6.57;;;;;;;;;;4932901;29;20055;-75
2021/07/28 07:23:54;;;;;;;12.43;7.95;;;;;;;;;;4933099;29;20056;-74
2021/07/28 07:26:22;;;;;;;11.43;6.93;;;;;;;;;;4932123;29;20189;-75
2021/07/28 07:28:49;;;;;;;12.02;9.05;;;;;;;;;;4933057;29;20051;-74
2021/07/28 07:31:16;;;;;;;13.85;8.43;;;;;;;;;;4933110;29;20048;-75
2021/07/28 07:33:43;;;;;;;15.15;8.95;;;;;;;;;;4933616;29;20047;-74
2021/07/28 07:36:11;;;;;;;12.93;9.23;;;;;;;;;;4932776;29;20052;-75
2021/07/28 07:38:38;;;;;;;15.02;8.95;;;;;;;;;;4964475;23;20146;-84
2021/07/28 07:41:06;;;;;;;11.80;8.70;;;;;;;;;;4959874;29;20040;-84
2021/07/28 07:43:35;;;;;;;13.65;9.27;;;;;;;;;;4959216;29;20047;-85
2021/07/28 07:46:02;;;;;;;16.38;10.07;;;;;;;;;;4957747;29;20047;-84
2021/07/28 07:48:29;;;;;;;18.27;10.18;;;;;;;;;;4955459;29;20070;-85
2021/07/28 07:50:56;;;;;;;15.50;9.15;;;;;;;;;;4942197;29;20052;-85
2021/07/28 07:53:23;;;;;;;15.00;9.13;;;;;;;;;;4940532;29;20040;-85
2021/07/28 07:55:50;;;;;;;13.50;9.63;;;;;;;;;;4938829;29;20059;-87
2021/07/28 07:58:17;;;;;;;19.05;10.98;;;;;;;;;;4938617;29;20055;-85
2021/07/28 08:00:45;;;;;;;21.15;14.45;;;;;;;;;;4939122;29;20103;-84
2021/07/28 08:03:12;;;;;;;15.10;10.13;;;;;;;;;;4941251;29;20063;-84
2021/07/28 08:05:39;;;;;;;14.48;10.48;;;;;;;;;;4939238;29;20107;-84
2021/07/28 08:08:07;;;;;;;16.52;11.27;;;;;;;;;;4936652;29;20211;-84
2021/07/28 08:10:33;;;;;;;16.10;11.43;;;;;;;;;;4937005;29;20065;-84
2021/07/28 08:13:00;;;;;;;16.23;11.40;;;;;;;;;;4937360;29;20461;-84
2021/07/28 08:15:27;;;;;;;17.23;10.40;;;;;;;;;;4940486;29;20055;-84
2021/07/28 08:17:55;;;;;;;18.33;11.32;;;;;;;;;;4942776;29;20058;-84
2021/07/28 08:20:22;;;;;;;20.05;12.85;;;;;;;;;;4944197;29;20055;-85
2021/07/28 08:22:49;;;;;;;16.48;11.35;;;;;;;;;;4942124;29;20044;-84
2021/07/28 08:25:16;;;;;;;26.55;12.18;;;;;;;;;;4941723;29;20048;-85
2021/07/28 08:27:43;;;;;;;19.25;12.75;;;;;;;;;;4941739;29;20107;-84
2021/07/28 08:30:11;;;;;;;18.73;12.38;;;;;;;;;;4941834;29;20051;-84
2021/07/28 08:32:44;;;;;;;18.63;11.52;;;;;;;;;;4941318;29;20052;-87
2021/07/28 08:35:12;;;;;;;18.00;11.80;;;;;;;;;;4941295;29;20453;-85
2021/07/28 08:37:44;;;;;;;20.10;13.02;;;;;;;;;;4940900;29;20138;-88
2021/07/28 08:40:13;;;;;;;20.58;12.13;;;;;;;;;;4940531;29;20054;-84
2021/07/28 08:42:41;;;;;;;18.70;12.23;;;;;;;;;;4953250;29;20050;-84
2021/07/28 08:45:10;;;;;;;18.17;12.75;;;;;;;;;;4962373;28;20027;-85
2021/07/28 08:47:38;;;;;;;18.73;13.00;;;;;;;;;;4962367;29;20027;-85
2021/07/28 08:50:05;;;;;;;21.20;13.77;;;;;;;;;;4962440;28;20039;-85
2021/07/28 08:52:34;;;;;;;21.80;13.70;;;;;;;;;;4962023;28;20065;-84
2021/07/28 08:55:01;;;;;;;22.98;14.23;;;;;;;;;;4958269;28;20043;-84
2021/07/28 08:57:29;;;;;;;21.98;13.52;;;;;;;;;;4949986;29;20067;-84
2021/07/28 08:59:57;;;;;;;21.92;13.75;;;;;;;;;;4950026;29;20062;-84
2021/07/28 09:02:24;;;;;;;22.58;14.05;;;;;;;;;;4950874;29;20043;-83
2021/07/28 09:04:51;;;;;;;22.52;14.32;;;;;;;;;;4951485;29;20051;-84
2021/07/28 09:07:20;;;;;;;23.33;14.10;;;;;;;;;;4951627;29;20059;-84
2021/07/28 09:09:56;;;;;;;24.33;15.55;;;;;;;;;;4942551;29;20151;-83
2021/07/28 09:12:32;;;;;;;26.13;15.50;;;;;;;;;;4947360;29;20048;-84
2021/07/28 09:15:03;;;;;;;24.92;15.70;;;;;;;;;;4946003;29;20567;-84
2021/07/28 09:17:31;;;;;;;28.23;17.13;;;;;;;;;;4939825;29;20055;-83
2021/07/28 09:19:59;;;;;;;27.23;16.33;;;;;;;;;;4940504;29;20059;-84
2021/07/28 09:22:32;;;;;;;24.58;15.43;;;;;;;;;;4941553;29;20592;-83
2021/07/28 09:25:17;;;;;;;25.13;15.25;;;;;;;;;;4940458;29;20047;-83
2021/07/28 09:27:48;;;;;;;27.67;15.98;;;;;;;;;;4940183;29;20050;-84
2021/07/28 09:30:18;;;;;;;24.98;15.00;;;;;;;;;;4940793;29;20047;-84
2021/07/28 09:32:58;;;;;;;27.15;17.33;;;;;;;;;;4939955;29;20556;-84
2021/07/28 09:36:09;;;;;;;25.08;15.48;;;;;;;;;;4939322;29;20087;-83
2021/07/28 09:38:43;;;;;;;26.85;14.73;;;;;;;;;;4940263;29;20134;-83
2021/07/28 09:41:29;;;;;;;22.88;14.68;;;;;;;;;;4940459;29;20576;-83
2021/07/28 09:43:58;;;;;;;23.90;16.02;;;;;;;;;;4940733;29;20044;-83
2021/07/28 09:46:27;;;;;;;26.30;18.05;;;;;;;;;;4941756;29;20792;-83
2021/07/28 09:48:55;;;;;;;21.80;15.32;;;;;;;;;;4940860;29;20044;-83
2021/07/28 09:51:27;;;;;;;25.73;14.00;;;;;;;;;;4940126;29;20052;-83
2021/07/28 09:53:55;;;;;;;22.90;13.98;;;;;;;;;;4940640;29;20051;-83
2021/07/28 09:56:40;;;;;;;23.70;14.02;;;;;;;;;;4939298;29;20054;-83
2021/07/28 09:59:07;;;;;;;19.70;12.10;;;;;;;;;;4939552;29;20091;-83
2021/07/28 10:01:35;;;;;;;16.85;10.90;;;;;;;;;;4939690;29;20079;-83
2021/07/28 10:04:03;;;;;;;18.25;11.15;;;;;;;;;;4939820;29;20493;-83
2021/07/28 10:06:37;;;;;;;17.23;11.07;;;;;;;;;;4939176;29;20051;-83
2021/07/28 10:09:10;;;;;;;16.92;9.88;;;;;;;;;;4936861;29;20047;-83
2021/07/28 10:11:39;;;;;;;16.00;10.98;;;;;;;;;;4941909;29;20058;-82
2021/07/28 10:14:07;;;;;;;21.33;11.75;;;;;;;;;;4940450;29;20051;-82
2021/07/28 10:16:34;;;;;;;17.40;12.07;;;;;;;;;;4938402;29;20043;-84
2021/07/28 10:19:03;;;;;;;14.68;9.13;;;;;;;;;;4941924;29;20052;-84
2021/07/28 10:21:33;;;;;;;12.73;7.80;;;;;;;;;;4938931;29;20078;-84
2021/07/28 10:24:00;;;;;;;13.90;7.23;;;;;;;;;;4938665;29;20404;-83
2021/07/28 10:26:27;;;;;;;11.23;7.32;;;;;;;;;;4940328;29;20047;-84
2021/07/28 10:28:56;;;;;;;11.07;6.90;;;;;;;;;;4941748;29;20048;-84
2021/07/28 10:31:25;;;;;;;13.48;7.97;;;;;;;;;;4939878;29;20394;-84
2021/07/28 10:33:53;;;;;;;11.93;7.20;;;;;;;;;;4942289;29;20055;-84
2021/07/28 10:36:21;;;;;;;14.80;8.38;;;;;;;;;;4938044;29;20060;-84
2021/07/28 10:38:53;;;;;;;12.90;7.60;;;;;;;;;;4939233;29;20047;-83
2021/07/28 10:41:55;;;;;;;13.15;9.07;;;;;;;;;;4941691;29;20115;-81
2021/07/28 10:44:23;;;;;;;19.25;10.07;;;;;;;;;;4941337;29;20052;-83
2021/07/28 10:47:47;;;;;;;13.73;8.38;;;;;;;;;;4954688;29;20039;-84
2021/07/28 10:50:46;;;;;;;11.55;7.38;;;;;;;;;;4953970;28;20039;-84
2021/07/28 10:53:33;;;;;;;12.95;7.88;;;;;;;;;;4951756;29;20027;-85
2021/07/28 10:56:10;;;;;;;14.25;8.23;;;;;;;;;;4956809;28;20107;-84
2021/07/28 10:58:36;;;;;;;14.73;7.72;;;;;;;;;;4941926;29;20051;-83
2021/07/28 11:01:04;;;;;;;11.85;7.40;;;;;;;;;;4942292;29;20522;-85
2021/07/28 11:03:36;;;;;;;12.93;7.70;;;;;;;;;;4941222;29;20051;-83
2021/07/28 11:06:22;;;;;;;13.40;8.30;;;;;;;;;;4939472;29;20130;-82
2021/07/28 11:08:49;;;;;;;14.82;9.15;;;;;;;;;;4940744;29;20051;-83
2021/07/28 11:11:28;;;;;;;18.38;10.00;;;;;;;;;;4941270;29;20390;-84
2021/07/28 11:13:55;;;;;;;19.33;9.50;;;;;;;;;;4942676;29;20051;-84
2021/07/28 11:16:24;;;;;;;12.23;7.07;;;;;;;;;;4940016;29;20048;-84
2021/07/28 11:18:52;;;;;;;12.60;7.20;;;;;;;;;;4941810;29;20091;-84
2021/07/28 11:21:21;;;;;;;11.30;6.80;;;;;;;;;;4941763;29;20068;-83
2021/07/28 11:23:55;;;;;;;12.37;7.50;;;;;;;;;;4939824;29;20056;-84
2021/07/28 11:26:24;;;;;;;9.60;6.07;;;;;;;;;;4940056;29;20051;-83
2021/07/28 11:28:56;;;;;;;10.18;6.00;;;;;;;;;;4939747;29;20048;-83
2021/07/28 11:34:58;;;;;;;9.77;6.40;;;;;;;;;;4904362;29;20056;-84
2021/07/28 11:37:25;;;;;;;11.55;6.63;;;;;;;;;;4939650;29;20083;-83
2021/07/28 11:39:51;;;;;;;11.18;6.72;;;;;;;;;;4939333;29;20052;-83
2021/07/28 11:42:18;;;;;;;11.77;6.50;;;;;;;;;;4939685;29;20560;-83
2021/07/28 11:44:49;;;;;;;12.23;6.88;;;;;;;;;;4938832;29;20048;-84
2021/07/28 11:47:23;;;;;;;10.02;7.28;;;;;;;;;;4941006;29;20051;-84
2021/07/28 11:50:05;;;;;;;10.90;7.03;;;;;;;;;;4955822;29;20047;-83
2021/07/28 11:52:32;;;;;;;9.43;6.50;;;;;;;;;;4957843;29;20231;-84
2021/07/28 11:54:59;;;;;;;11.30;6.63;;;;;;;;;;4956010;29;20063;-83
2021/07/28 11:57:26;;;;;;;10.88;6.72;;;;;;;;;;4956619;29;20035;-84
2021/07/28 11:59:53;;;;;;;9.95;6.30;;;;;;;;;;4957866;29;20039;-85
2021/07/28 12:02:20;;;;;;;9.38;6.13;;;;;;;;;;4953999;29;20044;-84
2021/07/28 12:04:48;;;;;;;11.07;6.47;;;;;;;;;;4946376;29;20044;-83
2021/07/28 12:07:18;;;;;;;11.32;6.25;;;;;;;;;;4948349;29;20055;-84
2021/07/28 12:09:57;;;;;;;9.85;5.82;;;;;;;;;;4945737;29;20040;-83
2021/07/28 12:12:25;;;;;;;10.33;6.33;;;;;;;;;;4944338;29;20075;-84
2021/07/28 12:15:08;;;;;;;10.23;6.15;;;;;;;;;;4943667;29;20054;-84
2021/07/28 12:17:35;;;;;;;9.40;6.22;;;;;;;;;;4945879;29;20521;-84
2021/07/28 12:20:04;;;;;;;10.43;6.30;;;;;;;;;;4944398;29;20071;-84
2021/07/28 12:22:33;;;;;;;10.88;6.05;;;;;;;;;;4943313;29;20059;-83
2021/07/28 12:25:21;;;;;;;12.93;6.80;;;;;;;;;;4943177;29;20043;-83
2021/07/28 12:28:08;;;;;;;10.77;6.63;;;;;;;;;;4943853;29;20192;-84
2021/07/28 12:30:37;;;;;;;10.75;6.22;;;;;;;;;;4942891;29;20055;-84
2021/07/28 12:33:09;;;;;;;10.68;6.28;;;;;;;;;;4943313;29;20135;-85
2021/07/28 12:35:45;;;;;;;13.85;6.80;;;;;;;;;;4943256;29;20059;-83
2021/07/28 12:38:32;;;;;;;11.25;6.18;;;;;;;;;;4943188;29;20098;-84
2021/07/28 12:41:00;;;;;;;12.02;6.95;;;;;;;;;;4945430;29;20051;-84
2021/07/28 12:43:29;;;;;;;12.20;7.72;;;;;;;;;;4944670;29;20052;-85
2021/07/28 12:45:57;;;;;;;9.15;5.88;;;;;;;;;;4942806;29;20048;-84
2021/07/28 12:48:24;;;;;;;12.48;6.97;;;;;;;;;;4942835;29;20047;-84
2021/07/28 12:50:52;;;;;;;12.10;7.55;;;;;;;;;;4942770;29;20051;-85
2021/07/28 12:53:19;;;;;;;10.95;6.07;;;;;;;;;;4942209;29;20048;-84
2021/07/28 12:55:47;;;;;;;10.95;6.35;;;;;;;;;;4943712;29;20043;-84
2021/07/28 12:58:14;;;;;;;10.80;6.78;;;;;;;;;;4944137;29;20052;-83
2021/07/28 13:00:42;;;;;;;10.18;5.97;;;;;;;;;;4949450;29;20062;-84
2021/07/28 13:03:11;;;;;;;11.35;6.82;;;;;;;;;;4955995;29;20048;-83
2021/07/28 13:05:41;;;;;;;11.70;7.30;;;;;;;;;;4955849;29;20055;-82
2021/07/28 13:08:11;;;;;;;;;;;;;;;;;;4955372;29;20051;-83
2021/07/28 13:10:40;;;;;;;12.07;6.57;;;;;;;;;;4952777;29;19929;-85
2021/07/28 13:13:09;;;;;;;11.30;6.50;;;;;;;;;;4948348;29;20051;-84
2021/07/28 13:15:39;;;;;;;9.35;6.10;;;;;;;;;;4952114;29;20052;-84
2021/07/28 13:18:06;;;;;;;;;;;;;;;;;;4953152;29;20044;-83
2021/07/28 13:20:33;;;;;;;10.82;6.25;;;;;;;;;;4949604;29;20388;-83
2021/07/28 13:23:00;;;;;;;10.35;6.32;;;;;;;;;;4948411;29;20048;-82
2021/07/28 13:25:28;;;;;;;11.85;6.45;;;;;;;;;;4948277;29;20043;-84
2021/07/28 13:27:57;;;;;;;11.77;6.95;;;;;;;;;;4948291;29;20058;-84
2021/07/28 13:30:25;;;;;;;12.07;8.13;;;;;;;;;;4948838;29;20055;-85
2021/07/28 13:32:52;;;;;;;10.75;6.85;;;;;;;;;;4953898;29;20062;-83
2021/07/28 13:35:20;;;;;;;12.90;6.80;;;;;;;;;;4951794;29;20111;-84
2021/07/28 13:37:48;;;;;;;10.98;6.90;;;;;;;;;;4949725;29;20077;-83
2021/07/28 13:40:14;;;;;;;10.73;6.95;;;;;;;;;;4962316;23;20106;-76
2021/07/28 13:42:43;;;;;;;12.85;6.97;;;;;;;;;;4954298;28;20552;-76
2021/07/28 13:45:11;;;;;;;10.20;6.03;;;;;;;;;;4954276;29;20055;-77
2021/07/28 13:47:43;;;;;;;11.57;7.00;;;;;;;;;;4954307;29;20055;-77
2021/07/28 13:50:11;;;;;;;11.02;6.68;;;;;;;;;;4954240;29;20110;-77
2021/07/28 13:52:38;;;;;;;9.15;6.18;;;;;;;;;;4954672;29;20105;-77
2021/07/28 13:55:05;;;;;;;9.15;5.90;;;;;;;;;;4954101;28;20591;-77
2021/07/28 13:57:32;;;;;;;8.95;5.60;;;;;;;;;;4954477;29;20050;-79
2021/07/28 13:59:59;;;;;;;11.35;6.30;;;;;;;;;;4954689;29;20051;-77
2021/07/28 14:02:27;;;;;;;11.88;7.50;;;;;;;;;;4954703;29;20456;-79
2021/07/28 14:04:56;;;;;;;10.45;6.38;;;;;;;;;;4954825;28;20047;-77
2021/07/28 14:07:25;;;;;;;10.20;6.20;;;;;;;;;;4953316;28;20130;-77
2021/07/28 14:09:52;;;;;;;11.48;7.05;;;;;;;;;;4953900;28;20039;-76
2021/07/28 14:12:19;;;;;;;10.52;7.00;;;;;;;;;;4954170;28;20146;-76
2021/07/28 14:14:46;;;;;;;11.27;7.53;;;;;;;;;;4953832;28;20464;-77
2021/07/28 14:17:12;;;;;;;12.77;7.60;;;;;;;;;;4953677;28;20519;-75
2021/07/28 14:19:39;;;;;;;12.60;7.07;;;;;;;;;;4954482;28;20114;-76
2021/07/28 14:22:08;;;;;;;10.00;6.10;;;;;;;;;;4954292;28;20500;-76
2021/07/28 14:24:35;;;;;;;10.73;6.45;;;;;;;;;;4954196;28;20047;-76
2021/07/28 14:27:03;;;;;;;12.10;7.00;;;;;;;;;;4954041;28;20102;-76
2021/07/28 14:29:30;;;;;;;11.75;6.80;;;;;;;;;;4953560;28;20051;-78
2021/07/28 14:31:57;;;;;;;11.45;7.35;;;;;;;;;;4955646;28;20048;-77
2021/07/28 14:34:23;;;;;;;11.15;7.22;;;;;;;;;;4955458;28;20121;-76
2021/07/28 14:36:50;;;;;;;11.50;7.35;;;;;;;;;;4955949;29;20055;-77
2021/07/28 14:39:20;;;;;;;11.93;7.22;;;;;;;;;;4955975;29;20463;-78
2021/07/28 14:41:51;;;;;;;16.05;8.98;;;;;;;;;;4960714;29;20047;-77
2021/07/28 14:44:18;;;;;;;15.48;8.00;;;;;;;;;;4975759;29;20047;-78
2021/07/28 14:46:45;;;;;;;12.00;7.47;;;;;;;;;;4975222;28;20050;-77